Time;durP1;ratioP1;P1;durP2;ratioP2;P2;SDS_P1;SDS_P2;PMS_P1;PMS_P2;Temp;Humidity;BMP_temperature;BMP_pressure;BME280_temperature;BME280_humidity;BME280_pressure;Samples;Min_cycle;Max_cycle;Signal;HPM_P1;HPM_P2
2021/10/28 00:12:53;;;;;;;91.93;40.25;;;;;;;;;;5052296;28;20036;-65
2021/10/28 00:15:53;;;;;;;114.55;46.85;;;;;;;;;;5041748;28;20419;-65
2021/10/28 00:18:17;;;;;;;120.20;49.57;;;;;;;;;;5052388;28;20124;-65
2021/10/28 00:20:52;;;;;;;98.38;42.25;;;;;;;;;;5053232;28;20025;-65
2021/10/28 00:23:21;;;;;;;80.20;35.65;;;;;;;;;;5052212;28;20033;-65
2021/10/28 00:25:48;;;;;;;71.45;34.05;;;;;;;;;;5053513;28;20036;-65
2021/10/28 00:28:15;;;;;;;73.50;33.88;;;;;;;;;;5052789;28;20017;-65
2021/10/28 00:30:42;;;;;;;58.80;30.13;;;;;;;;;;5053303;28;20025;-65
2021/10/28 00:33:10;;;;;;;56.58;28.23;;;;;;;;;;5052709;28;20063;-65
2021/10/28 00:35:38;;;;;;;56.60;29.40;;;;;;;;;;5053304;28;20075;-65
2021/10/28 00:38:06;;;;;;;72.45;33.40;;;;;;;;;;5052872;28;20021;-65
2021/10/28 00:40:34;;;;;;;60.60;30.33;;;;;;;;;;5052578;28;20520;-65
2021/10/28 00:43:01;;;;;;;68.53;31.85;;;;;;;;;;5053243;28;20025;-65
2021/10/28 00:45:29;;;;;;;59.60;29.00;;;;;;;;;;5052049;28;20057;-65
2021/10/28 00:47:59;;;;;;;64.03;30.13;;;;;;;;;;5052153;28;20108;-65
2021/10/28 00:50:28;;;;;;;65.43;31.25;;;;;;;;;;5051742;28;20025;-65
2021/10/28 00:52:56;;;;;;;60.20;30.67;;;;;;;;;;5046879;28;20087;-65
2021/10/28 00:55:22;;;;;;;58.45;30.58;;;;;;;;;;5033146;28;20493;-65
2021/10/28 00:57:49;;;;;;;66.80;31.58;;;;;;;;;;5033081;28;20052;-65
2021/10/28 01:00:15;;;;;;;84.45;37.08;;;;;;;;;;5033294;28;20025;-65
2021/10/28 01:02:41;;;;;;;127.60;48.88;;;;;;;;;;5033456;28;20021;-65
2021/10/28 01:05:08;;;;;;;134.00;50.83;;;;;;;;;;5041630;28;20411;-65
2021/10/28 01:07:34;;;;;;;114.18;46.17;;;;;;;;;;5051898;28;20503;-65
2021/10/28 01:10:01;;;;;;;108.85;45.53;;;;;;;;;;5052627;28;20858;-65
2021/10/28 01:12:27;;;;;;;126.13;48.83;;;;;;;;;;5035061;28;20041;-65
2021/10/28 01:14:53;;;;;;;116.95;47.70;;;;;;;;;;5033654;28;20037;-65
2021/10/28 01:17:19;;;;;;;121.60;47.58;;;;;;;;;;5044531;28;20029;-65
2021/10/28 01:19:49;;;;;;;96.28;42.40;;;;;;;;;;5036854;28;20099;-65
2021/10/28 01:22:16;;;;;;;90.88;40.15;;;;;;;;;;5045047;28;20037;-66
2021/10/28 01:24:42;;;;;;;92.32;39.42;;;;;;;;;;5033878;28;20033;-66
2021/10/28 01:27:09;;;;;;;76.90;36.10;;;;;;;;;;5052331;28;20154;-66
2021/10/28 01:29:36;;;;;;;80.00;35.92;;;;;;;;;;5052199;28;20021;-65
2021/10/28 01:32:02;;;;;;;82.05;36.58;;;;;;;;;;5052190;28;20041;-65
2021/10/28 01:34:28;;;;;;;80.40;36.78;;;;;;;;;;5051773;28;20047;-65
2021/10/28 01:36:57;;;;;;;81.28;36.58;;;;;;;;;;5039820;28;20017;-65
2021/10/28 01:39:23;;;;;;;86.25;39.13;;;;;;;;;;5051036;28;20021;-65
2021/10/28 01:41:50;;;;;;;77.82;34.80;;;;;;;;;;5052289;28;20017;-66
2021/10/28 01:44:17;;;;;;;84.05;37.20;;;;;;;;;;5051215;28;20056;-65
2021/10/28 01:46:43;;;;;;;87.63;38.00;;;;;;;;;;5051816;28;20025;-65
2021/10/28 01:49:20;;;;;;;87.40;40.08;;;;;;;;;;5051602;28;20029;-65
2021/10/28 01:51:46;;;;;;;84.13;37.63;;;;;;;;;;5052163;28;20043;-66
2021/10/28 01:54:12;;;;;;;96.70;41.22;;;;;;;;;;5050832;28;20478;-66
2021/10/28 01:56:38;;;;;;;88.93;39.88;;;;;;;;;;5052140;28;20036;-66
2021/10/28 01:59:04;;;;;;;81.75;36.80;;;;;;;;;;5052124;28;20370;-65
2021/10/28 02:01:30;;;;;;;85.38;38.85;;;;;;;;;;5051025;28;20106;-66
2021/10/28 02:03:56;;;;;;;90.10;41.83;;;;;;;;;;5051522;28;20033;-66
2021/10/28 02:06:23;;;;;;;76.30;35.92;;;;;;;;;;5051149;28;20100;-65
2021/10/28 02:08:49;;;;;;;84.90;40.13;;;;;;;;;;5051283;28;20448;-65
2021/10/28 02:11:15;;;;;;;88.35;41.67;;;;;;;;;;5050951;28;20021;-66
2021/10/28 02:13:41;;;;;;;80.20;36.65;;;;;;;;;;5048590;28;20028;-66
2021/10/28 02:16:08;;;;;;;74.60;36.60;;;;;;;;;;5051284;28;20032;-65
2021/10/28 02:18:34;;;;;;;91.35;40.17;;;;;;;;;;5051204;28;20046;-66
2021/10/28 02:21:02;;;;;;;86.25;38.25;;;;;;;;;;5051394;28;20138;-66
2021/10/28 02:23:28;;;;;;;82.55;39.40;;;4.10;99.90;;;;;;5050175;28;20059;-65
2021/10/28 02:25:53;;;;;;;88.68;40.53;;;4.20;99.90;;;;;;5051286;28;20032;-65
2021/10/28 02:28:19;;;;;;;82.53;38.55;;;3.90;99.90;;;;;;5050097;28;20029;-66
2021/10/28 02:30:45;;;;;;;81.72;38.85;;;3.90;99.90;;;;;;5050558;28;20401;-65
2021/10/28 02:33:11;;;;;;;106.65;44.42;;;3.80;99.90;;;;;;5050789;28;20029;-66
2021/10/28 02:35:37;;;;;;;110.05;44.40;;;3.60;99.90;;;;;;5050960;28;20029;-65
2021/10/28 02:38:03;;;;;;;97.20;40.55;;;3.80;99.90;;;;;;5047469;28;20021;-65
2021/10/28 02:40:29;;;;;;;100.07;40.95;;;3.90;99.90;;;;;;5050331;28;20032;-66
2021/10/28 02:42:55;;;;;;;108.35;43.25;;;3.70;99.90;;;;;;5051442;28;20029;-65
2021/10/28 02:45:21;;;;;;;109.57;42.90;;;3.70;99.90;;;;;;5050865;28;20098;-65
2021/10/28 02:47:49;;;;;;;98.93;40.80;;;3.70;99.90;;;;;;5050968;28;20029;-65
2021/10/28 02:50:16;;;;;;;97.63;40.50;;;3.70;99.90;;;;;;5050386;28;20033;-65
2021/10/28 02:52:42;;;;;;;93.47;39.08;;;3.70;99.90;;;;;;5051342;28;20051;-65
2021/10/28 02:55:08;;;;;;;94.85;40.55;;;3.70;99.90;;;;;;5051319;28;20044;-65
2021/10/28 02:57:34;;;;;;;83.53;38.63;;;3.60;99.90;;;;;;5050547;28;20107;-65
2021/10/28 03:00:00;;;;;;;99.82;39.65;;;3.60;99.90;;;;;;5051090;28;20247;-65
2021/10/28 03:02:26;;;;;;;92.07;39.95;;;3.50;99.90;;;;;;5050198;28;20036;-65
2021/10/28 03:04:52;;;;;;;103.13;41.75;;;3.60;99.90;;;;;;5050960;28;20560;-65
2021/10/28 03:07:18;;;;;;;124.25;46.60;;;3.40;99.90;;;;;;5050476;28;20025;-65
2021/10/28 03:09:44;;;;;;;115.35;47.63;;;3.60;99.90;;;;;;5050783;28;20043;-65
2021/10/28 03:12:09;;;;;;;122.03;47.08;;;3.70;99.90;;;;;;5050729;28;20180;-65
2021/10/28 03:28:20;;;;;;;118.13;43.63;;;3.50;99.90;;;;;;5045171;28;20037;-65
2021/10/28 03:30:47;;;;;;;138.05;49.42;;;3.60;99.90;;;;;;5050420;28;20116;-66
2021/10/28 03:33:17;;;;;;;157.35;54.15;;;3.60;99.90;;;;;;5050293;28;20037;-66
2021/10/28 03:35:45;;;;;;;141.70;49.13;;;3.50;99.90;;;;;;5050782;28;20018;-66
2021/10/28 03:38:18;;;;;;;149.52;51.03;;;3.60;99.90;;;;;;5050977;28;20029;-66
2021/10/28 04:07:20;;;;;;;137.30;47.78;;;3.40;99.90;;;;;;5054097;28;20029;-65
2021/10/28 04:28:54;;;;;;;102.32;40.03;;;3.30;99.90;;;;;;5053188;28;20035;-66
2021/10/28 04:31:22;;;;;;;109.00;43.33;;;;;;;;;;5052680;28;20052;-65
2021/10/28 04:33:48;;;;;;;110.43;41.63;;;;;;;;;;5053775;28;20029;-66
2021/10/28 04:36:28;;;;;;;113.80;42.55;;;;;;;;;;5052766;28;20017;-66
2021/10/28 04:38:54;;;;;;;95.55;38.17;;;;;;;;;;5053508;28;20021;-66
2021/10/28 04:41:21;;;;;;;91.53;38.20;;;;;;;;;;5052249;28;20025;-66
2021/10/28 04:43:47;;;;;;;91.68;37.10;;;;;;;;;;5052979;28;20087;-66
2021/10/28 04:46:13;;;;;;;86.35;36.72;;;;;;;;;;5053002;28;20028;-65
2021/10/28 04:48:39;;;;;;;89.90;37.63;;;;;;;;;;5052238;28;20041;-66
2021/10/28 04:51:05;;;;;;;91.70;36.35;;;;;;;;;;5052846;28;20052;-66
2021/10/28 04:53:31;;;;;;;86.30;36.63;;;;;;;;;;5051055;28;20029;-66
2021/10/28 04:55:57;;;;;;;85.40;36.80;;;;;;;;;;5052794;28;20075;-66
2021/10/28 04:58:24;;;;;;;86.38;36.15;;;;;;;;;;5051968;28;20505;-66
2021/10/28 05:00:51;;;;;;;78.82;35.17;;;;;;;;;;5051790;28;20033;-65
2021/10/28 05:03:17;;;;;;;84.65;36.28;;;;;;;;;;5052603;28;20074;-65
2021/10/28 05:05:43;;;;;;;82.45;35.42;;;;;;;;;;5052524;28;20074;-66
2021/10/28 05:08:09;;;;;;;77.30;34.60;;;;;;;;;;5051936;28;20109;-66
2021/10/28 05:10:35;;;;;;;88.20;35.58;;;3.60;99.90;;;;;;5051770;28;20991;-66
2021/10/28 05:13:00;;;;;;;94.30;39.63;;;2.90;99.90;;;;;;5052234;28;20100;-66
2021/10/28 05:15:27;;;;;;;87.78;36.67;;;2.90;99.90;;;;;;5051451;28;20037;-65
2021/10/28 05:17:53;;;;;;;104.97;40.53;;;2.80;99.90;;;;;;5052266;28;20394;-65
2021/10/28 05:20:19;;;;;;;81.22;35.05;;;2.80;99.90;;;;;;5051479;28;20025;-66
2021/10/28 05:22:45;;;;;;;84.75;35.15;;;2.80;99.90;;;;;;5052473;28;20040;-65
2021/10/28 05:25:11;;;;;;;76.05;33.67;;;2.70;99.90;;;;;;5052062;28;20037;-66
2021/10/28 05:27:36;;;;;;;74.40;31.60;;;2.70;99.90;;;;;;5051416;28;20595;-66
2021/10/28 05:30:03;;;;;;;77.00;33.85;;;2.70;99.90;;;;;;5052100;28;20447;-66
2021/10/28 05:32:29;;;;;;;88.95;35.70;;;2.60;99.90;;;;;;5051138;28;20478;-67
2021/10/28 05:34:59;;;;;;;84.28;35.42;;;2.60;99.90;;;;;;5052033;28;20040;-68
2021/10/28 05:37:26;;;;;;;91.50;36.97;;;2.60;99.90;;;;;;5051002;28;20057;-65
2021/10/28 05:39:51;;;;;;;86.18;35.25;;;2.60;99.90;;;;;;5051760;28;20427;-68
2021/10/28 05:42:17;;;;;;;92.07;35.92;;;2.60;99.90;;;;;;5051248;28;20032;-68
2021/10/28 05:44:43;;;;;;;101.00;38.85;;;2.50;99.90;;;;;;5050878;28;20056;-69
2021/10/28 05:47:08;;;;;;;95.03;37.28;;;2.50;99.90;;;;;;5051917;28;20028;-67
2021/10/28 05:49:35;;;;;;;97.50;36.40;;;2.50;99.90;;;;;;5050052;28;20028;-66
2021/10/28 05:52:01;;;;;;;91.95;35.40;;;2.60;99.90;;;;;;5049277;28;20107;-65
2021/10/28 05:54:27;;;;;;;89.70;37.42;;;2.50;99.90;;;;;;5052527;28;20058;-67
2021/10/28 05:56:52;;;;;;;92.10;39.42;;;2.50;99.90;;;;;;5051101;28;20151;-66
2021/10/28 05:59:18;;;;;;;90.03;34.95;;;2.50;99.90;;;;;;5051026;28;20109;-66
2021/10/28 06:01:44;;;;;;;93.63;37.33;;;2.60;99.90;;;;;;5051476;28;20028;-65
2021/10/28 06:04:09;;;;;;;87.00;37.65;;;2.50;99.90;;;;;;5051474;28;20378;-65
2021/10/28 06:06:35;;;;;;;96.20;36.13;;;2.50;99.90;;;;;;5050256;28;20033;-65
2021/10/28 06:09:01;;;;;;;90.72;35.65;;;2.50;99.90;;;;;;5051668;28;20055;-65
2021/10/28 06:11:27;;;;;;;95.07;37.78;;;2.40;99.90;;;;;;5050607;28;20029;-66
2021/10/28 06:13:53;;;;;;;103.68;38.22;;;2.40;99.90;;;;;;5051384;28;20051;-65
2021/10/28 06:16:19;;;;;;;98.63;38.40;;;2.50;99.90;;;;;;5050946;28;20544;-66
2021/10/28 06:18:49;;;;;;;94.75;36.53;;;2.50;99.90;;;;;;5050869;28;20037;-66
2021/10/28 06:21:17;;;;;;;89.03;35.88;;;2.50;99.90;;;;;;5051462;28;20532;-65
2021/10/28 06:23:43;;;;;;;107.40;40.67;;;2.50;99.90;;;;;;5051017;28;20120;-65
2021/10/28 06:26:09;;;;;;;105.38;39.47;;;2.40;99.90;;;;;;5051360;28;20056;-64
2021/10/28 06:28:35;;;;;;;90.18;36.78;;;2.40;99.90;;;;;;5048997;28;20367;-64
2021/10/28 06:31:01;;;;;;;111.57;40.45;;;2.40;99.90;;;;;;5045755;28;20036;-64
2021/10/28 06:33:30;;;;;;;107.97;39.97;;;2.50;99.90;;;;;;5049623;28;20040;-64
2021/10/28 06:35:57;;;;;;;106.47;39.35;;;2.50;99.90;;;;;;5051267;28;20029;-64
2021/10/28 06:38:23;;;;;;;97.72;38.85;;;2.60;99.90;;;;;;5050452;28;20028;-64
2021/10/28 06:40:49;;;;;;;113.72;39.35;;;2.60;99.90;;;;;;5051025;28;20361;-64
2021/10/28 06:43:15;;;;;;;101.57;37.72;;;2.70;99.90;;;;;;5051099;28;20025;-64
2021/10/28 06:45:41;;;;;;;96.35;36.97;;;2.80;99.90;;;;;;5049824;28;20103;-64
2021/10/28 06:48:07;;;;;;;90.35;39.38;;;2.80;99.90;;;;;;5051005;28;20025;-64
2021/10/28 06:50:40;;;;;;;107.60;40.45;;;2.90;99.90;;;;;;5050713;28;20150;-64
2021/10/28 06:53:11;;;;;;;108.35;41.63;;;3.00;99.90;;;;;;5051098;28;20029;-64
2021/10/28 07:03:54;;;;;;;77.20;35.42;;;3.30;99.90;;;;;;5050915;28;20397;-64
2021/10/28 07:06:26;;;;;;;77.45;35.78;;;3.30;99.90;;;;;;5051029;28;20119;-64
2021/10/28 07:09:38;;;;;;;72.35;35.15;;;3.30;99.90;;;;;;5050706;28;20036;-64
2021/10/28 07:11:38;;;;;;;70.85;32.83;;;3.30;99.90;;;;;;5045650;28;20037;-64
2021/10/28 07:14:08;;;;;;;75.28;34.92;;;3.30;99.90;;;;;;5050919;28;20153;-64
2021/10/28 07:16:40;;;;;;;80.05;34.33;;;3.40;99.90;;;;;;5052345;28;20382;-64
2021/10/28 07:32:17;;;;;;;75.28;34.00;;;3.70;99.90;;;;;;5054562;28;20037;-64
2021/10/28 07:35:13;;;;;;;93.53;38.05;;;3.80;99.90;;;;;;5053865;28;20033;-64
2021/10/28 08:18:47;;;;;;;34.28;23.40;;;5.40;99.90;;;;;;5053607;28;20021;-64
2021/10/28 08:24:09;;;;;;;29.25;20.95;;;5.60;99.90;;;;;;5053105;28;20091;-64
2021/10/28 08:29:22;;;;;;;32.60;22.85;;;5.70;99.90;;;;;;5044179;28;20072;-64
2021/10/28 08:31:53;;;;;;;31.73;21.38;;;5.80;99.90;;;;;;5052182;28;20075;-65
2021/10/28 08:34:22;;;;;;;27.05;20.25;;;5.90;99.90;;;;;;5053839;28;20119;-64
2021/10/28 08:36:51;;;;;;;28.25;18.50;;;6.10;99.90;;;;;;5052634;28;20025;-64
2021/10/28 08:39:20;;;;;;;27.42;19.75;;;6.20;99.90;;;;;;5052926;28;20064;-64
2021/10/28 08:41:47;;;;;;;25.98;17.60;;;6.30;99.90;;;;;;5052225;28;20288;-64
2021/10/28 08:44:15;;;;;;;23.52;16.90;;;6.40;99.90;;;;;;5052896;28;20114;-64
2021/10/28 08:46:45;;;;;;;20.92;16.23;;;6.70;99.90;;;;;;5051193;28;20039;-64
2021/10/28 08:54:58;;;;;;;21.40;16.05;;;7.10;99.90;;;;;;5052033;28;20959;-63
2021/10/28 09:19:28;;;;;;;25.10;17.17;;;7.20;99.90;;;;;;5047450;28;20029;-64
2021/10/28 09:25:05;;;;;;;25.10;17.38;;;8.10;99.90;;;;;;5052379;28;20059;-64
2021/10/28 09:27:48;;;;;;;23.83;18.33;;;8.20;99.90;;;;;;5051387;28;20494;-64
2021/10/28 09:30:31;;;;;;;25.55;15.30;;;8.30;99.90;;;;;;5052286;28;20031;-64
2021/10/28 09:33:16;;;;;;;20.80;14.93;;;8.60;99.90;;;;;;5051874;28;20469;-64
2021/10/28 09:36:09;;;;;;;18.80;14.23;;;8.80;99.90;;;;;;5051347;28;20029;-64
2021/10/28 09:48:05;;;;;;;25.65;15.98;;;9.10;99.90;;;;;;5051826;28;20033;-64
2021/10/28 09:50:51;;;;;;;20.02;15.00;;;9.30;99.90;;;;;;5041451;28;20037;-64
2021/10/28 09:53:27;;;;;;;19.17;13.80;;;9.60;99.90;;;;;;5051845;28;20107;-64
2021/10/28 09:58:37;;;;;;;20.48;15.45;;;9.90;99.90;;;;;;5051534;28;20485;-64
2021/10/28 10:01:06;;;;;;;20.67;14.48;;;10.00;99.90;;;;;;5051634;28;20029;-64
2021/10/28 10:03:37;;;;;;;20.08;15.15;;;10.10;99.90;;;;;;5040007;28;20023;-64
2021/10/28 10:06:11;;;;;;;21.35;14.32;;;10.20;99.90;;;;;;5052291;28;20040;-63
2021/10/28 10:08:37;;;;;;;18.88;14.32;;;10.30;99.90;;;;;;5050670;28;20484;-63
2021/10/28 10:11:03;;;;;;;19.25;14.85;;;10.50;99.90;;;;;;5051857;28;20044;-63
2021/10/28 10:13:31;;;;;;;22.75;13.85;;;10.50;99.90;;;;;;5050989;28;20463;-64
2021/10/28 10:16:01;;;;;;;23.98;15.48;;;10.60;99.90;;;;;;5051056;28;20032;-63
2021/10/28 10:18:31;;;;;;;;;;;10.70;99.90;;;;;;5051560;28;20508;-63
2021/10/28 10:21:04;;;;;;;18.00;13.73;;;10.90;99.90;;;;;;5051386;28;19952;-63
2021/10/28 10:24:01;;;;;;;19.75;14.60;;;11.00;99.90;;;;;;5051150;28;20021;-63
2021/10/28 11:28:13;;;;;;;19.73;14.70;;;13.20;99.90;;;;;;5037301;28;20363;-64
2021/10/28 12:53:12;;;;;;;13.25;10.63;;;18.40;88.50;;;;;;5052135;28;20108;-64
2021/10/28 13:48:40;;;;;;;11.25;8.60;;;16.90;89.50;;;;;;5052189;28;20040;-64
2021/10/28 13:51:43;;;;;;;19.42;10.90;;;16.50;90.40;;;;;;5050585;28;20037;-64
2021/10/28 13:54:39;;;;;;;14.80;10.68;;;16.30;90.90;;;;;;5049544;28;20139;-63
2021/10/28 14:17:12;;;;;;;11.73;9.55;;;15.50;94.90;;;;;;5051009;28;20098;-64
2021/10/28 15:29:31;;;;;;;12.55;7.65;;;12.90;99.90;;;;;;5050773;28;20448;-63
2021/10/28 15:35:32;;;;;;;11.05;7.57;;;12.60;99.90;;;;;;5048772;28;20409;-63
2021/10/28 15:37:53;;;;;;;8.68;6.95;;;12.50;99.90;;;;;;5048848;28;20037;-63
2021/10/28 16:23:18;;;;;;;14.02;9.40;;;10.80;99.90;;;;;;5053380;28;20079;-63
2021/10/28 16:25:46;;;;;;;13.18;8.93;;;10.70;99.90;;;;;;5052505;28;20466;-63
2021/10/28 16:28:15;;;;;;;15.02;9.80;;;10.70;99.90;;;;;;5053573;28;20134;-63
2021/10/28 16:30:45;;;;;;;13.18;9.15;;;10.70;99.90;;;;;;5052927;28;20107;-63
2021/10/28 16:33:13;;;;;;;17.70;9.93;;;10.60;99.90;;;;;;5053373;28;20040;-63
2021/10/28 16:35:45;;;;;;;16.88;10.70;;;10.50;99.90;;;;;;5052964;28;20033;-63
2021/10/28 16:38:11;;;;;;;17.85;10.63;;;10.50;99.90;;;;;;5053316;28;20029;-64
2021/10/28 16:40:38;;;;;;;17.38;10.18;;;10.40;99.90;;;;;;5053236;28;20032;-64
2021/10/28 16:43:04;;;;;;;14.00;9.88;;;10.40;99.90;;;;;;5052257;28;20025;-64
2021/10/28 16:45:30;;;;;;;15.30;10.43;;;10.30;99.90;;;;;;5052870;28;20041;-64
2021/10/28 16:47:56;;;;;;;18.33;10.20;;;10.20;99.90;;;;;;5050904;28;20471;-64
2021/10/28 16:50:22;;;;;;;14.65;10.23;;;10.10;99.90;;;;;;5053311;28;20035;-64
2021/10/28 16:52:49;;;;;;;18.95;10.60;;;10.10;99.90;;;;;;5052398;28;20037;-63
2021/10/28 16:55:14;;;;;;;16.45;10.75;;;10.10;99.90;;;;;;5053152;28;20048;-63
2021/10/28 16:57:44;;;;;;;16.92;11.02;;;10.10;99.90;;;;;;5052548;28;20033;-64
2021/10/28 17:00:11;;;;;;;19.07;12.37;;;10.10;99.90;;;;;;5052953;28;20504;-63
2021/10/28 17:02:37;;;;;;;24.33;12.73;;;10.10;99.90;;;;;;5053075;28;20060;-64
2021/10/28 17:05:04;;;;;;;17.73;12.25;;;10.00;99.90;;;;;;5052064;28;20591;-67
2021/10/28 17:07:30;;;;;;;18.05;12.00;;;10.00;99.90;;;;;;5052879;28;20047;-66
2021/10/28 17:09:57;;;;;;;25.35;13.15;;;10.00;99.90;;;;;;5051648;28;20063;-67
2021/10/28 17:12:23;;;;;;;18.10;11.30;;;9.90;99.90;;;;;;5052652;28;20021;-67
2021/10/28 17:14:49;;;;;;;18.75;11.80;;;;;;;;;;5051230;28;20091;-67
2021/10/28 17:17:16;;;;;;;15.00;10.85;;;9.70;99.90;;;;;;5052658;28;20474;-69
2021/10/28 17:19:46;;;;;;;21.63;13.35;;;9.70;99.90;;;;;;5051355;28;20029;-68
2021/10/28 17:22:12;;;;;;;;;;;9.60;99.90;;;;;;5051749;28;20028;-72
2021/10/28 17:24:45;;;;;;;19.00;12.90;;;9.40;99.90;;;;;;5052274;28;20416;-70
2021/10/28 17:27:11;;;;;;;24.35;14.82;;;9.40;99.90;;;;;;5052385;28;20037;-67
2021/10/28 17:29:38;;;;;;;27.88;15.77;;;9.40;99.90;;;;;;5052188;28;20029;-70
2021/10/28 17:32:05;;;;;;;24.48;15.35;;;9.40;99.90;;;;;;5051473;28;20035;-66
2021/10/28 17:34:33;;;;;;;22.67;15.13;;;9.30;99.90;;;;;;5051917;28;20057;-66
2021/10/28 17:36:59;;;;;;;21.13;13.63;;;9.40;99.90;;;;;;5051413;28;20064;-65
2021/10/28 17:39:27;;;;;;;21.77;13.75;;;9.40;99.90;;;;;;5051796;28;20064;-66
2021/10/28 17:41:54;;;;;;;21.67;14.18;;;9.40;99.90;;;;;;5051640;28;20028;-68
2021/10/28 17:44:23;;;;;;;21.55;14.40;;;9.40;99.90;;;;;;5051690;28;20057;-64
2021/10/28 17:46:49;;;;;;;20.48;13.48;;;9.40;99.90;;;;;;5051677;28;20108;-65
2021/10/28 17:49:17;;;;;;;20.75;13.55;;;;;;;;;;5051805;28;20029;-65
2021/10/28 17:51:42;;;;;;;18.40;12.80;;;9.10;99.90;;;;;;5051556;28;20488;-65
2021/10/28 17:54:11;;;;;;;20.40;13.00;;;9.30;99.90;;;;;;5051167;28;20037;-69
2021/10/28 17:56:38;;;;;;;20.92;12.85;;;9.20;99.90;;;;;;5051430;28;20025;-69
2021/10/28 17:59:05;;;;;;;19.27;13.93;;;8.90;99.90;;;;;;5050743;28;20032;-70
2021/10/28 18:01:32;;;;;;;22.58;14.43;;;9.20;99.90;;;;;;5051542;28;20047;-66
2021/10/28 18:04:00;;;;;;;20.73;13.75;;;9.20;99.90;;;;;;5051112;28;20021;-65
2021/10/28 18:06:28;;;;;;;23.38;13.68;;;9.20;99.90;;;;;;5051413;28;20032;-68
2021/10/28 18:08:55;;;;;;;15.85;11.90;;;;;;;;;;5050951;28;20021;-68
2021/10/28 18:11:21;;;;;;;21.92;14.95;;;9.20;99.90;;;;;;5051012;28;20474;-67
2021/10/28 18:13:53;;;;;;;21.20;14.43;;;8.90;99.90;;;;;;5050958;28;20033;-67
2021/10/28 18:16:19;;;;;;;18.67;13.10;;;8.80;99.90;;;;;;5051438;28;20037;-71
2021/10/28 18:18:46;;;;;;;24.35;15.23;;;8.80;99.90;;;;;;5050826;28;20086;-67
2021/10/28 18:21:12;;;;;;;23.20;15.70;;;8.70;99.90;;;;;;5051429;28;20040;-66
2021/10/28 18:23:44;;;;;;;20.48;14.00;;;8.60;99.90;;;;;;5051124;28;20033;-65
2021/10/28 18:26:09;;;;;;;22.08;13.93;;;8.50;99.90;;;;;;5051415;28;20044;-66
2021/10/28 18:28:35;;;;;;;21.40;14.93;;;8.40;99.90;;;;;;5051489;28;20033;-67
2021/10/28 18:31:02;;;;;;;22.33;15.18;;;8.30;99.90;;;;;;5050665;28;20571;-66
2021/10/28 18:33:27;;;;;;;26.25;16.65;;;8.30;99.90;;;;;;5051377;28;20115;-66
2021/10/28 18:35:53;;;;;;;24.55;16.55;;;8.10;99.90;;;;;;5050108;28;20119;-66
2021/10/28 18:38:21;;;;;;;23.75;15.57;;;8.10;99.90;;;;;;5051910;28;20107;-67
2021/10/28 18:40:47;;;;;;;28.08;17.40;;;8.00;99.90;;;;;;5050254;28;20494;-65
2021/10/28 18:43:16;;;;;;;25.38;15.95;;;7.90;99.90;;;;;;5051520;28;20040;-65
2021/10/28 18:45:42;;;;;;;28.55;17.90;;;7.90;99.90;;;;;;5050726;28;20076;-66
2021/10/28 18:48:08;;;;;;;24.38;16.38;;;7.80;99.90;;;;;;5050287;28;20044;-65
2021/10/28 18:50:34;;;;;;;29.35;18.23;;;7.80;99.90;;;;;;5051265;28;20033;-66
2021/10/28 18:53:01;;;;;;;26.83;17.88;;;7.70;99.90;;;;;;5050453;28;20079;-66
2021/10/28 18:55:27;;;;;;;24.98;15.68;;;7.70;99.90;;;;;;5051030;28;20036;-66
2021/10/28 18:57:52;;;;;;;22.27;15.07;;;7.70;99.90;;;;;;5050635;28;20021;-65
2021/10/28 19:00:18;;;;;;;21.10;13.80;;;7.80;99.90;;;;;;5050884;28;20056;-66
2021/10/28 19:02:50;;;;;;;23.80;15.23;;;7.80;99.90;;;;;;5051192;28;20055;-66
2021/10/28 19:05:16;;;;;;;23.67;15.43;;;7.80;99.90;;;;;;5051288;28;20124;-66
2021/10/28 19:07:45;;;;;;;23.50;14.98;;;7.80;99.90;;;;;;5051102;28;20109;-68
2021/10/28 19:10:11;;;;;;;22.77;15.82;;;;;;;;;;5050783;28;20103;-67
2021/10/28 19:12:37;;;;;;;21.00;15.45;;;;;;;;;;5054446;28;20044;-67
2021/10/28 19:15:04;;;;;;;24.88;16.58;;;;;;;;;;5054464;28;20033;-66
2021/10/28 19:17:30;;;;;;;26.38;18.52;;;;;;;;;;5054831;28;20036;-67
2021/10/28 19:19:56;;;;;;;32.40;18.52;;;;;;;;;;5054032;28;20450;-67
2021/10/28 19:22:29;;;;;;;29.25;18.27;;;;;;;;;;5054821;28;20048;-67
2021/10/28 19:24:55;;;;;;;28.10;18.65;;;;;;;;;;5054154;28;20029;-67
2021/10/28 19:27:21;;;;;;;32.00;19.58;;;;;;;;;;5054856;28;20025;-66
2021/10/28 19:29:54;;;;;;;32.17;20.42;;;7.30;99.90;;;;;;5053908;28;20028;-65
2021/10/28 19:32:23;;;;;;;32.85;21.13;;;7.20;99.90;;;;;;5053233;28;20033;-66
2021/10/28 19:34:49;;;;;;;33.80;21.75;;;7.10;99.90;;;;;;5053535;28;20043;-72
2021/10/28 19:37:24;;;;;;;34.30;21.65;;;7.10;99.90;;;;;;5051134;28;20025;-67
2021/10/28 19:40:11;;;;;;;32.60;21.50;;;7.10;99.90;;;;;;5053901;28;20488;-66
2021/10/28 19:47:57;;;;;;;37.30;23.52;;;6.90;99.90;;;;;;5053438;28;20036;-66
2021/10/28 19:50:24;;;;;;;31.75;20.50;;;6.80;99.90;;;;;;5044478;28;20036;-66
2021/10/28 19:52:50;;;;;;;36.88;23.50;;;6.80;99.90;;;;;;5050219;28;20029;-65
2021/10/28 19:55:18;;;;;;;43.67;25.75;;;6.70;99.90;;;;;;5053707;28;20044;-65
2021/10/28 19:57:50;;;;;;;40.55;25.02;;;6.70;99.90;;;;;;5052237;28;20036;-66
2021/10/28 20:00:23;;;;;;;43.03;24.35;;;6.70;99.90;;;;;;5053386;28;20505;-65
2021/10/28 20:03:18;;;;;;;37.22;24.23;;;6.70;99.90;;;;;;5053074;28;20398;-65
2021/10/28 20:05:47;;;;;;;36.47;23.15;;;6.60;99.90;;;;;;5053930;28;20382;-65
2021/10/28 20:21:15;;;;;;;43.67;25.70;;;;;;;;;;5051614;28;20052;-65
2021/10/28 20:23:42;;;;;;;37.90;23.77;;;;;;;;;;5053280;28;20028;-65
2021/10/28 20:26:08;;;;;;;40.75;25.20;;;;;;;;;;5052411;28;20037;-65
2021/10/28 20:28:42;;;;;;;35.95;23.00;;;;;;;;;;5052373;28;20078;-65
2021/10/28 20:31:09;;;;;;;38.78;24.67;;;;;;;;;;5052373;28;20061;-66
2021/10/28 20:33:44;;;;;;;42.35;25.30;;;;;;;;;;5053486;28;20017;-64
2021/10/28 20:38:53;;;;;;;46.35;24.75;;;;;;;;;;5032674;28;20453;-64
2021/10/28 20:41:19;;;;;;;42.67;25.33;;;;;;;;;;5049885;28;20413;-64
2021/10/28 20:43:45;;;;;;;39.75;23.85;;;;;;;;;;5053026;28;20055;-64
2021/10/28 20:46:19;;;;;;;40.08;25.10;;;;;;;;;;5052242;28;20037;-64
2021/10/28 20:48:45;;;;;;;36.80;22.65;;;;;;;;;;5053120;28;20021;-64
2021/10/28 20:51:11;;;;;;;34.95;22.35;;;;;;;;;;5047015;28;20029;-64
2021/10/28 20:53:37;;;;;;;36.63;23.25;;;;;;;;;;5050478;28;20092;-64
2021/10/28 20:56:03;;;;;;;42.58;26.35;;;;;;;;;;5051852;28;20402;-64
2021/10/28 20:58:30;;;;;;;45.05;26.50;;;;;;;;;;5053028;28;20029;-64
2021/10/28 21:00:56;;;;;;;39.58;23.02;;;;;;;;;;5052004;28;20040;-64
2021/10/28 21:03:22;;;;;;;39.58;24.10;;;;;;;;;;5053011;28;20083;-64
2021/10/28 21:05:48;;;;;;;41.78;25.33;;;;;;;;;;5051848;28;20033;-64
2021/10/28 21:08:15;;;;;;;41.53;25.70;;;;;;;;;;5051904;28;20474;-65
2021/10/28 21:10:42;;;;;;;41.08;25.05;;;;;;;;;;5052578;28;20056;-64
2021/10/28 21:13:08;;;;;;;38.63;23.77;;;;;;;;;;5050215;28;20020;-64
2021/10/28 21:15:34;;;;;;;41.03;25.63;;;;;;;;;;5050446;28;20107;-64
2021/10/28 21:18:00;;;;;;;42.60;26.77;;;;;;;;;;5048135;28;20102;-64
2021/10/28 21:20:26;;;;;;;40.28;23.55;;;;;;;;;;5047683;28;20032;-64
2021/10/28 21:22:55;;;;;;;37.03;22.75;;;6.20;99.90;;;;;;5048031;28;20025;-64
2021/10/28 21:25:21;;;;;;;39.70;23.10;;;6.10;99.90;;;;;;5046042;28;20032;-64
2021/10/28 21:27:47;;;;;;;38.92;23.75;;;6.00;99.90;;;;;;5047546;28;20051;-64
2021/10/28 21:30:13;;;;;;;40.17;24.58;;;5.90;99.90;;;;;;5048322;28;20025;-64
2021/10/28 21:32:39;;;;;;;39.17;24.40;;;5.80;99.90;;;;;;5048380;28;20029;-64
2021/10/28 21:35:07;;;;;;;42.72;25.13;;;5.80;99.90;;;;;;5046218;28;20558;-64
2021/10/28 21:37:34;;;;;;;47.85;26.05;;;5.70;99.90;;;;;;5047027;28;20033;-64
2021/10/28 21:40:00;;;;;;;52.08;30.20;;;5.70;99.90;;;;;;5047010;28;20031;-63
2021/10/28 21:42:25;;;;;;;48.78;27.98;;;5.70;99.90;;;;;;5048864;28;20025;-63
2021/10/28 21:44:54;;;;;;;44.60;27.48;;;5.70;99.90;;;;;;5048421;28;20045;-64
2021/10/28 21:47:21;;;;;;;49.42;27.65;;;5.70;99.90;;;;;;5047941;28;20025;-63
2021/10/28 21:49:47;;;;;;;63.53;33.80;;;5.70;99.90;;;;;;5046648;28;20029;-64
2021/10/28 21:52:46;;;;;;;73.70;35.95;;;5.80;99.90;;;;;;5047836;28;20051;-64
2021/10/28 21:57:48;;;;;;;79.90;37.22;;;5.90;99.90;;;;;;5048921;28;20057;-63
2021/10/28 22:26:43;;;;;;;59.20;29.75;;;5.70;99.90;;;;;;5048528;28;20039;-63
2021/10/28 22:29:08;;;;;;;62.13;31.38;;;5.60;99.90;;;;;;5047814;28;20029;-63
2021/10/28 22:31:34;;;;;;;62.47;31.63;;;5.60;99.90;;;;;;5048504;28;20036;-64
2021/10/28 22:34:00;;;;;;;64.05;33.97;;;5.50;99.90;;;;;;5047985;28;20057;-64
2021/10/28 22:36:35;;;;;;;67.88;33.67;;;5.60;99.90;;;;;;5048237;28;20041;-64